createdAt,value
2023-03-19T00:00:43.017Z,959.21
2023-03-19T00:01:45.378Z,959.19
2023-03-19T00:02:42.956Z,959.18
2023-03-19T00:03:42.871Z,959.15
2023-03-19T00:04:42.753Z,959.16
2023-03-19T00:05:42.688Z,959.22
2023-03-19T00:06:42.622Z,959.16
2023-03-19T00:07:42.558Z,959.21
2023-03-19T00:08:42.488Z,959.19
2023-03-19T00:09:42.428Z,959.21
2023-03-19T00:10:42.363Z,959.24
2023-03-19T00:11:42.296Z,959.25
2023-03-19T00:12:42.225Z,959.27
2023-03-19T00:13:42.172Z,959.28
2023-03-19T00:14:42.096Z,959.28
2023-03-19T00:15:42.029Z,959.32
2023-03-19T00:16:42.029Z,959.32
2023-03-19T00:17:41.900Z,959.33
2023-03-19T00:18:41.858Z,959.34
2023-03-19T00:19:41.761Z,959.33
2023-03-19T00:20:41.700Z,959.29
2023-03-19T00:21:41.632Z,959.27
2023-03-19T00:22:41.570Z,959.28
2023-03-19T00:23:41.520Z,959.24
2023-03-19T00:24:41.434Z,959.27
2023-03-19T00:25:41.370Z,959.27
2023-03-19T00:26:41.311Z,959.31
2023-03-19T00:27:41.258Z,959.35
2023-03-19T00:28:41.178Z,959.31
2023-03-19T00:29:41.101Z,959.32
2023-03-19T00:30:41.098Z,959.32
2023-03-19T00:31:40.975Z,959.33
2023-03-19T00:32:40.915Z,959.32
2023-03-19T00:33:40.846Z,959.30
2023-03-19T00:34:40.777Z,959.28
2023-03-19T00:35:40.737Z,959.27
2023-03-19T00:36:40.649Z,959.29
2023-03-19T00:37:40.573Z,959.28
2023-03-19T00:38:40.511Z,959.25
2023-03-19T00:39:40.455Z,959.28
2023-03-19T00:40:40.388Z,959.32
2023-03-19T00:41:40.318Z,959.31
2023-03-19T00:42:40.254Z,959.35
2023-03-19T00:43:40.178Z,959.36
2023-03-19T00:44:40.116Z,959.37
2023-03-19T00:45:40.050Z,959.34
2023-03-19T00:46:39.983Z,959.36
2023-03-19T00:47:39.916Z,959.36
2023-03-19T00:48:39.877Z,959.37
2023-03-19T00:49:39.786Z,959.38
2023-03-19T00:50:39.715Z,959.35
2023-03-19T00:51:39.653Z,959.37
2023-03-19T00:52:39.590Z,959.37
2023-03-19T00:53:39.529Z,959.37
2023-03-19T00:54:39.461Z,959.38
2023-03-19T00:55:39.399Z,959.35
2023-03-19T00:56:39.322Z,959.33
2023-03-19T00:57:39.257Z,959.31
2023-03-19T00:58:39.190Z,959.33
2023-03-19T00:59:39.143Z,959.32
2023-03-19T01:00:39.058Z,959.34
2023-03-19T01:01:39.010Z,959.32
2023-03-19T01:02:38.936Z,959.34
2023-03-19T01:03:38.860Z,959.35
2023-03-19T01:04:38.815Z,959.35
2023-03-19T01:05:38.728Z,959.37
2023-03-19T01:06:38.661Z,959.39
2023-03-19T01:07:38.601Z,959.38
2023-03-19T01:08:38.536Z,959.34
2023-03-19T01:09:38.454Z,959.44
2023-03-19T01:10:38.400Z,959.40
2023-03-19T01:11:38.327Z,959.42
2023-03-19T01:12:38.264Z,959.44
2023-03-19T01:13:38.196Z,959.40
2023-03-19T01:14:38.138Z,959.44
2023-03-19T01:15:38.080Z,959.47
2023-03-19T01:16:38.566Z,959.46
2023-03-19T01:17:37.941Z,959.48
2023-03-19T01:18:37.871Z,959.48
2023-03-19T01:19:37.816Z,959.47
2023-03-19T01:20:37.738Z,959.46
2023-03-19T01:21:37.669Z,959.46
2023-03-19T01:22:37.598Z,959.41
2023-03-19T01:23:37.538Z,959.45
2023-03-19T01:24:37.471Z,959.42
2023-03-19T01:25:37.407Z,959.41
2023-03-19T01:26:37.345Z,959.44
2023-03-19T01:27:37.270Z,959.47
2023-03-19T01:28:37.224Z,959.48
2023-03-19T01:29:37.145Z,959.50
2023-03-19T01:30:37.085Z,959.50
2023-03-19T01:31:37.053Z,959.51
2023-03-19T01:32:36.962Z,959.52
2023-03-19T01:33:36.875Z,959.55
2023-03-19T01:34:36.815Z,959.57
2023-03-19T01:35:36.761Z,959.56
2023-03-19T01:36:36.681Z,959.59
2023-03-19T01:37:36.612Z,959.60
2023-03-19T01:38:36.553Z,959.58
2023-03-19T01:39:36.480Z,959.57
2023-03-19T01:40:36.415Z,959.60
2023-03-19T01:41:36.347Z,959.60
2023-03-19T01:42:36.281Z,959.57
2023-03-19T01:43:36.212Z,959.60
2023-03-19T01:44:36.162Z,959.55
2023-03-19T01:45:36.086Z,959.51
2023-03-19T01:46:36.046Z,959.53
2023-03-19T01:47:35.952Z,959.55
2023-03-19T01:48:35.936Z,959.54
2023-03-19T01:49:35.825Z,959.54
2023-03-19T01:50:35.885Z,959.54
2023-03-19T01:51:35.683Z,959.49
2023-03-19T01:52:35.616Z,959.54
2023-03-19T01:53:35.553Z,959.49
2023-03-19T01:54:35.506Z,959.47
2023-03-19T01:55:35.425Z,959.50
2023-03-19T01:56:35.356Z,959.50
2023-03-19T01:57:35.287Z,959.50
2023-03-19T01:58:35.227Z,959.53
2023-03-19T01:59:35.152Z,959.50
2023-03-19T02:00:35.170Z,959.49
2023-03-19T02:01:35.043Z,959.52
2023-03-19T02:02:34.974Z,959.53
2023-03-19T02:03:34.906Z,959.53
2023-03-19T02:04:34.865Z,959.51
2023-03-19T02:05:34.770Z,959.51
2023-03-19T02:06:34.688Z,959.51
2023-03-19T02:07:34.620Z,959.57
2023-03-19T02:08:34.559Z,959.53
2023-03-19T02:09:34.491Z,959.52
2023-03-19T02:10:34.671Z,959.50
2023-03-19T02:11:34.359Z,959.49
2023-03-19T02:12:34.293Z,959.46
2023-03-19T02:13:34.233Z,959.46
2023-03-19T02:14:34.161Z,959.47
2023-03-19T02:15:34.102Z,959.47
2023-03-19T02:16:34.097Z,959.47
2023-03-19T02:17:33.961Z,959.46
2023-03-19T02:18:33.892Z,959.50
2023-03-19T02:19:33.826Z,959.51
2023-03-19T02:20:34.048Z,959.56
2023-03-19T02:21:33.694Z,959.57
2023-03-19T02:22:33.634Z,959.59
2023-03-19T02:23:33.572Z,959.61
2023-03-19T02:24:33.497Z,959.60
2023-03-19T02:25:33.432Z,959.61
2023-03-19T02:26:33.357Z,959.62
2023-03-19T02:27:33.300Z,959.59
2023-03-19T02:28:33.231Z,959.63
2023-03-19T02:29:33.160Z,959.63
2023-03-19T02:30:33.379Z,959.59
2023-03-19T02:31:33.095Z,959.59
2023-03-19T02:32:32.976Z,959.54
2023-03-19T02:33:32.908Z,959.57
2023-03-19T02:34:32.832Z,959.58
2023-03-19T02:35:32.809Z,959.62
2023-03-19T02:36:32.716Z,959.63
2023-03-19T02:37:33.745Z,959.62
2023-03-19T02:38:32.570Z,959.62
2023-03-19T02:39:32.504Z,959.60
2023-03-19T02:40:32.628Z,959.59
2023-03-19T02:41:32.362Z,959.58
2023-03-19T02:42:32.309Z,959.55
2023-03-19T02:43:32.251Z,959.55
2023-03-19T02:44:32.178Z,959.54
2023-03-19T02:45:32.136Z,959.56
2023-03-19T02:46:32.107Z,959.57
2023-03-19T02:47:31.967Z,959.53
2023-03-19T02:48:31.905Z,959.57
2023-03-19T02:49:31.837Z,959.57
2023-03-19T02:50:31.955Z,959.54
2023-03-19T02:51:31.700Z,959.59
2023-03-19T02:52:31.655Z,959.56
2023-03-19T02:53:31.580Z,959.56
2023-03-19T02:54:31.514Z,959.57
2023-03-19T02:55:31.445Z,959.55
2023-03-19T02:56:31.385Z,959.57
2023-03-19T02:57:31.308Z,959.61
2023-03-19T02:58:31.248Z,959.62
2023-03-19T02:59:31.175Z,959.61
2023-03-19T03:00:31.159Z,959.61
2023-03-19T03:01:31.045Z,959.63
2023-03-19T03:02:31.011Z,959.65
2023-03-19T03:03:30.916Z,959.66
2023-03-19T03:04:30.847Z,959.70
2023-03-19T03:05:30.777Z,959.70
2023-03-19T03:06:30.714Z,959.70
2023-03-19T03:07:30.646Z,959.74
2023-03-19T03:08:30.586Z,959.74
2023-03-19T03:09:30.514Z,959.77
2023-03-19T03:10:30.466Z,959.78
2023-03-19T03:11:30.385Z,959.78
2023-03-19T03:12:30.318Z,959.79
2023-03-19T03:13:30.288Z,959.84
2023-03-19T03:14:30.201Z,959.80
2023-03-19T03:15:30.119Z,959.82
2023-03-19T03:16:30.115Z,959.85
2023-03-19T03:17:29.988Z,959.85
2023-03-19T03:18:29.934Z,959.84
2023-03-19T03:19:29.855Z,959.86
2023-03-19T03:20:29.792Z,959.84
2023-03-19T03:21:29.718Z,959.83
2023-03-19T03:22:29.650Z,959.83
2023-03-19T03:23:29.583Z,959.81
2023-03-19T03:24:29.525Z,959.79
2023-03-19T03:25:29.450Z,959.81
2023-03-19T03:26:29.390Z,959.76
2023-03-19T03:27:29.320Z,959.77
2023-03-19T03:28:29.258Z,959.73
2023-03-19T03:29:29.194Z,959.75
2023-03-19T03:30:29.125Z,959.71
2023-03-19T03:31:29.066Z,959.68
2023-03-19T03:32:28.991Z,959.72
2023-03-19T03:33:28.929Z,959.71
2023-03-19T03:34:28.861Z,959.76
2023-03-19T03:35:28.854Z,959.70
2023-03-19T03:36:28.729Z,959.74
2023-03-19T03:37:28.658Z,959.72
2023-03-19T03:38:28.596Z,959.72
2023-03-19T03:39:28.530Z,959.72
2023-03-19T03:40:28.466Z,959.75
2023-03-19T03:41:28.402Z,959.79
2023-03-19T03:42:28.339Z,959.84
2023-03-19T03:43:28.266Z,959.83
2023-03-19T03:44:28.196Z,959.84
2023-03-19T03:45:28.267Z,959.83
2023-03-19T03:46:28.085Z,959.88
2023-03-19T03:47:27.998Z,959.88
2023-03-19T03:48:27.934Z,959.96
2023-03-19T03:49:27.862Z,960.00
2023-03-19T03:50:27.802Z,960.03
2023-03-19T03:51:27.742Z,960.09
2023-03-19T03:52:27.669Z,960.12
2023-03-19T03:53:27.600Z,960.12
2023-03-19T03:54:27.544Z,960.16
2023-03-19T03:55:27.475Z,960.14
2023-03-19T03:56:27.412Z,960.11
2023-03-19T03:57:27.335Z,960.11
2023-03-19T03:58:27.271Z,960.12
2023-03-19T03:59:27.209Z,960.10
2023-03-19T04:00:27.145Z,960.14
2023-03-19T04:01:27.074Z,960.16
2023-03-19T04:02:27.024Z,960.19
2023-03-19T04:03:26.986Z,960.19
2023-03-19T04:04:26.878Z,960.25
2023-03-19T04:05:26.825Z,960.24
2023-03-19T04:06:26.740Z,960.27
2023-03-19T04:07:26.692Z,960.29
2023-03-19T04:08:26.615Z,960.28
2023-03-19T04:09:26.551Z,960.26
2023-03-19T04:10:26.475Z,960.30
2023-03-19T04:11:26.415Z,960.29
2023-03-19T04:12:26.367Z,960.30
2023-03-19T04:13:26.280Z,960.36
2023-03-19T04:14:26.224Z,960.35
2023-03-19T04:15:26.150Z,960.35
2023-03-19T04:16:26.148Z,960.35
2023-03-19T04:17:26.013Z,960.37
2023-03-19T04:18:25.946Z,960.34
2023-03-19T04:19:25.882Z,960.34
2023-03-19T04:20:25.812Z,960.38
2023-03-19T04:21:25.753Z,960.36
2023-03-19T04:22:25.677Z,960.41
2023-03-19T04:23:25.615Z,960.40
2023-03-19T04:24:25.550Z,960.43
2023-03-19T04:25:25.487Z,960.44
2023-03-19T04:26:25.416Z,960.47
2023-03-19T04:27:25.367Z,960.48
2023-03-19T04:28:25.287Z,960.50
2023-03-19T04:29:25.217Z,960.54
2023-03-19T04:30:25.152Z,960.54
2023-03-19T04:31:25.134Z,960.55
2023-03-19T04:32:25.048Z,960.59
2023-03-19T04:33:24.951Z,960.61
2023-03-19T04:34:24.896Z,960.60
2023-03-19T04:35:24.922Z,960.60
2023-03-19T04:36:24.754Z,960.61
2023-03-19T04:37:24.690Z,960.60
2023-03-19T04:38:24.621Z,960.60
2023-03-19T04:39:24.563Z,960.59
2023-03-19T04:40:24.495Z,960.59
2023-03-19T04:41:24.428Z,960.58
2023-03-19T04:42:24.356Z,960.58
2023-03-19T04:43:24.297Z,960.56
2023-03-19T04:44:24.224Z,960.60
2023-03-19T04:45:24.154Z,960.57
2023-03-19T04:46:24.099Z,960.59
2023-03-19T04:47:24.027Z,960.56
2023-03-19T04:48:23.961Z,960.58
2023-03-19T04:49:23.893Z,960.54
2023-03-19T04:50:23.831Z,960.59
2023-03-19T04:51:23.760Z,960.59
2023-03-19T04:52:23.702Z,960.62
2023-03-19T04:53:23.627Z,960.61
2023-03-19T04:54:23.565Z,960.64
2023-03-19T04:55:23.513Z,960.66
2023-03-19T04:56:23.426Z,960.71
2023-03-19T04:57:23.367Z,960.78
2023-03-19T04:58:23.294Z,960.84
2023-03-19T04:59:23.319Z,960.84
2023-03-19T05:00:23.162Z,960.92
2023-03-19T05:01:23.106Z,960.93
2023-03-19T05:02:23.029Z,960.99
2023-03-19T05:03:22.968Z,961.00
2023-03-19T05:04:22.905Z,960.97
2023-03-19T05:05:22.829Z,961.00
2023-03-19T05:06:22.764Z,960.98
2023-03-19T05:07:22.700Z,961.02
2023-03-19T05:08:22.650Z,961.05
2023-03-19T05:09:22.566Z,961.11
2023-03-19T05:10:22.495Z,961.12
2023-03-19T05:11:22.438Z,961.09
2023-03-19T05:12:22.374Z,961.13
2023-03-19T05:13:22.303Z,961.14
2023-03-19T05:14:22.232Z,961.15
2023-03-19T05:15:22.163Z,961.20
2023-03-19T05:16:22.193Z,961.21
2023-03-19T05:17:22.037Z,961.27
2023-03-19T05:18:21.976Z,961.25
2023-03-19T05:19:21.906Z,961.32
2023-03-19T05:20:21.856Z,961.28
2023-03-19T05:21:21.772Z,961.33
2023-03-19T05:22:21.707Z,961.36
2023-03-19T05:23:21.645Z,961.38
2023-03-19T05:24:21.580Z,961.38
2023-03-19T05:25:21.514Z,961.42
2023-03-19T05:26:21.451Z,961.39
2023-03-19T05:27:21.396Z,961.43
2023-03-19T05:28:21.312Z,961.45
2023-03-19T05:29:21.246Z,961.45
2023-03-19T05:30:21.174Z,961.47
2023-03-19T05:31:21.141Z,961.48
2023-03-19T05:32:21.064Z,961.51
2023-03-19T05:33:20.986Z,961.50
2023-03-19T05:34:20.929Z,961.53
2023-03-19T05:35:20.879Z,961.57
2023-03-19T05:36:20.794Z,961.55
2023-03-19T05:37:20.712Z,961.60
2023-03-19T05:38:20.652Z,961.60
2023-03-19T05:39:20.595Z,961.59
2023-03-19T05:40:20.516Z,961.62
2023-03-19T05:41:20.445Z,961.61
2023-03-19T05:42:20.423Z,961.64
2023-03-19T05:43:20.331Z,961.62
2023-03-19T05:44:20.252Z,961.68
2023-03-19T05:45:20.189Z,961.66
2023-03-19T05:46:20.145Z,961.62
2023-03-19T05:47:20.051Z,961.68
2023-03-19T05:48:19.981Z,961.71
2023-03-19T05:49:19.933Z,961.68
2023-03-19T05:50:19.857Z,961.72
2023-03-19T05:51:19.792Z,961.71
2023-03-19T05:52:19.726Z,961.71
2023-03-19T05:53:19.681Z,961.68
2023-03-19T05:54:19.596Z,961.76
2023-03-19T05:55:19.524Z,961.78
2023-03-19T05:56:19.467Z,961.75
2023-03-19T05:57:19.386Z,961.81
2023-03-19T05:58:19.320Z,961.78
2023-03-19T05:59:19.253Z,961.78
2023-03-19T06:00:19.196Z,961.83
2023-03-19T06:01:19.170Z,961.84
2023-03-19T06:02:19.070Z,961.86
2023-03-19T06:03:18.992Z,961.85
2023-03-19T06:04:18.987Z,961.87
2023-03-19T06:05:18.859Z,961.89
2023-03-19T06:06:18.785Z,961.90
2023-03-19T06:07:18.735Z,961.90
2023-03-19T06:08:18.690Z,961.93
2023-03-19T06:09:18.595Z,961.97
2023-03-19T06:10:18.523Z,961.96
2023-03-19T06:11:18.463Z,961.98
2023-03-19T06:12:18.392Z,961.96
2023-03-19T06:13:18.332Z,962.01
2023-03-19T06:14:18.269Z,961.98
2023-03-19T06:15:18.201Z,961.99
2023-03-19T06:16:18.155Z,961.99
2023-03-19T06:17:18.064Z,961.98
2023-03-19T06:18:17.999Z,961.99
2023-03-19T06:19:17.932Z,962.00
2023-03-19T06:20:17.859Z,962.00
2023-03-19T06:21:17.803Z,962.03
2023-03-19T06:22:17.743Z,962.08
2023-03-19T06:23:17.668Z,962.06
2023-03-19T06:24:17.596Z,962.08
2023-03-19T06:25:17.537Z,962.06
2023-03-19T06:26:17.466Z,962.13
2023-03-19T06:27:17.397Z,962.08
2023-03-19T06:28:17.339Z,962.08
2023-03-19T06:29:17.273Z,962.06
2023-03-19T06:30:17.205Z,962.11
2023-03-19T06:31:17.148Z,962.10
2023-03-19T06:32:17.093Z,962.12
2023-03-19T06:33:17.010Z,962.14
2023-03-19T06:34:16.942Z,962.09
2023-03-19T06:35:16.873Z,962.10
2023-03-19T06:36:16.818Z,962.13
2023-03-19T06:37:16.748Z,962.15
2023-03-19T06:38:16.690Z,962.17
2023-03-19T06:39:16.624Z,962.13
2023-03-19T06:40:16.547Z,962.17
2023-03-19T06:41:16.501Z,962.14
2023-03-19T06:42:16.455Z,962.13
2023-03-19T06:43:16.353Z,962.14
2023-03-19T06:44:16.301Z,962.14
2023-03-19T06:45:16.214Z,962.10
2023-03-19T06:46:16.199Z,962.08
2023-03-19T06:47:16.087Z,962.08
2023-03-19T06:48:16.016Z,962.09
2023-03-19T06:49:15.952Z,962.12
2023-03-19T06:50:15.887Z,962.10
2023-03-19T06:51:15.831Z,962.06
2023-03-19T06:52:15.756Z,962.09
2023-03-19T06:53:15.693Z,962.12
2023-03-19T06:54:15.621Z,962.14
2023-03-19T06:55:15.557Z,962.10
2023-03-19T06:56:15.496Z,962.12
2023-03-19T06:57:15.426Z,962.13
2023-03-19T06:58:15.358Z,962.15
2023-03-19T06:59:15.291Z,962.15
2023-03-19T07:00:15.238Z,962.13
2023-03-19T07:01:15.190Z,962.15
2023-03-19T07:02:15.094Z,962.16
2023-03-19T07:03:15.020Z,962.14
2023-03-19T07:04:15.003Z,962.17
2023-03-19T07:05:14.892Z,962.17
2023-03-19T07:06:14.820Z,962.19
2023-03-19T07:07:14.775Z,962.18
2023-03-19T07:08:14.693Z,962.23
2023-03-19T07:09:14.626Z,962.20
2023-03-19T07:10:14.568Z,962.24
2023-03-19T07:11:14.501Z,962.21
2023-03-19T07:12:14.432Z,962.27
2023-03-19T07:13:14.369Z,962.26
2023-03-19T07:14:14.295Z,962.28
2023-03-19T07:15:14.227Z,962.28
2023-03-19T07:16:14.173Z,962.28
2023-03-19T07:17:14.090Z,962.25
2023-03-19T07:18:14.027Z,962.31
2023-03-19T07:19:13.967Z,962.29
2023-03-19T07:20:13.891Z,962.32
2023-03-19T07:21:13.830Z,962.34
2023-03-19T07:22:13.765Z,962.34
2023-03-19T07:23:13.695Z,962.37
2023-03-19T07:24:13.629Z,962.36
2023-03-19T07:25:13.566Z,962.39
2023-03-19T07:26:13.499Z,962.37
2023-03-19T07:27:13.435Z,962.34
2023-03-19T07:28:13.364Z,962.42
2023-03-19T07:29:13.310Z,962.38
2023-03-19T07:30:13.234Z,962.37
2023-03-19T07:31:13.258Z,962.44
2023-03-19T07:32:13.124Z,962.46
2023-03-19T07:33:13.096Z,962.45
2023-03-19T07:34:12.993Z,962.46
2023-03-19T07:35:12.910Z,962.52
2023-03-19T07:36:12.846Z,962.50
2023-03-19T07:37:12.782Z,962.48
2023-03-19T07:38:12.707Z,962.51
2023-03-19T07:39:12.650Z,962.53
2023-03-19T07:40:12.588Z,962.53
2023-03-19T07:41:12.504Z,962.51
2023-03-19T07:42:12.459Z,962.52
2023-03-19T07:43:12.373Z,962.53
2023-03-19T07:44:12.310Z,962.52
2023-03-19T07:45:12.240Z,962.57
2023-03-19T07:46:12.201Z,962.56
2023-03-19T07:47:27.919Z,962.53
2023-03-19T07:48:12.044Z,962.60
2023-03-19T07:49:11.991Z,962.61
2023-03-19T07:50:11.913Z,962.61
2023-03-19T07:51:11.850Z,962.61
2023-03-19T07:52:11.779Z,962.63
2023-03-19T07:53:11.713Z,962.62
2023-03-19T07:54:11.654Z,962.60
2023-03-19T07:55:11.583Z,962.61
2023-03-19T07:56:11.522Z,962.64
2023-03-19T07:57:11.450Z,962.63
2023-03-19T07:58:11.382Z,962.65
2023-03-19T07:59:11.325Z,962.59
2023-03-19T08:00:11.250Z,962.61
2023-03-19T08:01:11.194Z,962.63
2023-03-19T08:02:11.170Z,962.64
2023-03-19T08:03:11.052Z,962.65
2023-03-19T08:04:11.033Z,962.65
2023-03-19T08:05:10.921Z,962.59
2023-03-19T08:06:10.854Z,962.63
2023-03-19T08:07:18.570Z,962.64
2023-03-19T08:09:16.138Z,962.66
2023-03-19T08:10:16.045Z,962.65
2023-03-19T08:11:15.971Z,962.65
2023-03-19T08:12:15.906Z,962.62
2023-03-19T08:13:15.851Z,962.64
2023-03-19T08:14:15.770Z,962.64
2023-03-19T08:15:15.708Z,962.68
2023-03-19T08:16:15.640Z,962.66
2023-03-19T08:17:23.225Z,962.68
2023-03-19T08:19:19.939Z,962.68
2023-03-19T08:20:19.834Z,962.70
2023-03-19T08:22:24.214Z,962.75
2023-03-19T08:23:24.125Z,962.76
2023-03-19T08:25:28.455Z,962.76
2023-03-19T08:26:28.358Z,962.75
2023-03-19T08:28:32.724Z,962.80
2023-03-19T08:29:32.621Z,962.78
2023-03-19T08:31:25.981Z,962.79
2023-03-19T08:32:25.818Z,962.78
2023-03-19T08:34:30.172Z,962.80
2023-03-19T08:35:30.213Z,962.79
2023-03-19T08:37:34.399Z,962.84
2023-03-19T08:38:34.325Z,962.80
2023-03-19T08:40:38.676Z,962.77
2023-03-19T08:41:38.588Z,962.81
2023-03-19T08:43:43.914Z,962.87
2023-03-19T08:44:43.835Z,962.83
2023-03-19T08:45:43.768Z,962.86
2023-03-19T08:46:43.746Z,962.90
2023-03-19T08:47:43.642Z,962.90
2023-03-19T08:48:43.571Z,962.90
2023-03-19T08:49:43.517Z,962.89
2023-03-19T08:50:43.440Z,962.91
2023-03-19T08:51:43.379Z,962.91
2023-03-19T08:52:43.310Z,962.91
2023-03-19T08:53:43.261Z,962.95
2023-03-19T08:54:43.203Z,962.90
2023-03-19T08:55:43.113Z,962.93
2023-03-19T08:56:43.045Z,962.90
2023-03-19T08:57:42.985Z,962.91
2023-03-19T08:58:42.919Z,962.90
2023-03-19T08:59:42.850Z,962.92
2023-03-19T09:00:42.791Z,962.95
2023-03-19T09:01:42.745Z,962.91
2023-03-19T09:02:42.654Z,962.93
2023-03-19T09:03:42.590Z,962.93
2023-03-19T09:04:42.560Z,962.95
2023-03-19T09:05:42.455Z,962.97
2023-03-19T09:06:42.393Z,963.01
2023-03-19T09:07:42.335Z,962.99
2023-03-19T09:08:42.266Z,963.02
2023-03-19T09:09:42.205Z,963.07
2023-03-19T09:10:42.141Z,963.03
2023-03-19T09:11:42.069Z,963.02
2023-03-19T09:12:42.001Z,963.03
2023-03-19T09:13:41.939Z,963.03
2023-03-19T09:14:41.871Z,963.08
2023-03-19T09:15:41.823Z,963.06
2023-03-19T09:16:41.751Z,963.09
2023-03-19T09:17:41.682Z,963.09
2023-03-19T09:18:41.618Z,963.11
2023-03-19T09:19:41.547Z,963.08
2023-03-19T09:20:41.480Z,963.12
2023-03-19T09:21:41.431Z,963.14
2023-03-19T09:22:41.350Z,963.11
2023-03-19T09:23:41.299Z,963.15
2023-03-19T09:24:41.224Z,963.16
2023-03-19T09:25:41.157Z,963.16
2023-03-19T09:26:41.093Z,963.16
2023-03-19T09:27:41.033Z,963.16
2023-03-19T09:28:40.992Z,963.18
2023-03-19T09:29:40.921Z,963.15
2023-03-19T09:30:40.834Z,963.13
2023-03-19T09:31:40.836Z,963.13
2023-03-19T09:32:40.789Z,963.15
2023-03-19T09:33:40.634Z,963.15
2023-03-19T09:34:40.570Z,963.15
2023-03-19T09:35:40.561Z,963.19
2023-03-19T09:36:40.440Z,963.16
2023-03-19T09:37:40.377Z,963.12
2023-03-19T09:38:40.316Z,963.13
2023-03-19T09:39:40.255Z,963.13
2023-03-19T09:40:40.182Z,963.13
2023-03-19T09:41:40.111Z,963.12
2023-03-19T09:42:40.052Z,963.18
2023-03-19T09:43:39.980Z,963.16
2023-03-19T09:44:39.920Z,963.17
2023-03-19T09:45:39.871Z,963.18
2023-03-19T09:46:39.845Z,963.21
2023-03-19T09:47:39.725Z,963.20
2023-03-19T09:48:39.658Z,963.22
2023-03-19T09:49:39.595Z,963.20
2023-03-19T09:50:39.530Z,963.15
2023-03-19T09:51:39.467Z,963.16
2023-03-19T09:52:39.402Z,963.17
2023-03-19T09:53:39.331Z,963.12
2023-03-19T09:54:39.270Z,963.13
2023-03-19T09:55:39.197Z,963.12
2023-03-19T09:56:39.143Z,963.15
2023-03-19T09:57:39.080Z,963.12
2023-03-19T09:58:39.004Z,963.13
2023-03-19T09:59:38.941Z,963.11
2023-03-19T10:00:38.891Z,963.11
2023-03-19T10:01:38.900Z,963.16
2023-03-19T10:02:38.760Z,963.12
2023-03-19T10:03:38.739Z,963.09
2023-03-19T10:04:38.642Z,963.12
2023-03-19T10:05:38.557Z,963.11
2023-03-19T10:06:38.492Z,963.14
2023-03-19T10:07:38.425Z,963.11
2023-03-19T10:08:38.359Z,963.10
2023-03-19T10:09:38.304Z,963.06
2023-03-19T10:10:38.231Z,963.04
2023-03-19T10:11:38.175Z,963.06
2023-03-19T10:12:38.098Z,963.09
2023-03-19T10:13:38.042Z,963.06
2023-03-19T10:14:37.979Z,963.07
2023-03-19T10:15:38.018Z,963.03
2023-03-19T10:16:37.853Z,963.02
2023-03-19T10:17:37.779Z,963.03
2023-03-19T10:18:37.714Z,963.00
2023-03-19T10:19:40.357Z,963.00
2023-03-19T10:20:37.594Z,962.98
2023-03-19T10:21:37.528Z,963.05
2023-03-19T10:22:37.452Z,963.00
2023-03-19T10:23:37.392Z,963.00
2023-03-19T10:24:37.329Z,962.98
2023-03-19T10:25:39.734Z,963.03
2023-03-19T10:26:37.219Z,963.03
2023-03-19T10:27:37.139Z,963.04
2023-03-19T10:28:37.095Z,963.02
2023-03-19T10:29:37.009Z,963.03
2023-03-19T10:30:36.950Z,963.01
2023-03-19T10:31:36.916Z,963.00
2023-03-19T10:32:36.823Z,963.02
2023-03-19T10:33:36.748Z,963.02
2023-03-19T10:34:36.695Z,963.01
2023-03-19T10:35:37.259Z,963.04
2023-03-19T10:36:36.583Z,962.99
2023-03-19T10:37:36.498Z,962.99
2023-03-19T10:38:36.430Z,962.97
2023-03-19T10:39:36.365Z,962.97
2023-03-19T10:40:36.300Z,962.96
2023-03-19T10:41:36.240Z,962.95
2023-03-19T10:42:36.179Z,962.94
2023-03-19T10:43:36.108Z,962.90
2023-03-19T10:44:36.063Z,962.91
2023-03-19T10:45:38.483Z,962.88
2023-03-19T10:46:35.923Z,962.88
2023-03-19T10:47:35.857Z,962.86
2023-03-19T10:48:35.788Z,962.83
2023-03-19T10:49:35.732Z,962.80
2023-03-19T10:50:35.662Z,962.82
2023-03-19T10:51:35.619Z,962.83
2023-03-19T10:52:35.546Z,962.80
2023-03-19T10:53:35.474Z,962.78
2023-03-19T10:54:35.418Z,962.79
2023-03-19T10:55:35.712Z,962.78
2023-03-19T10:56:35.279Z,962.79
2023-03-19T10:57:35.213Z,962.76
2023-03-19T10:58:35.160Z,962.71
2023-03-19T10:59:35.091Z,962.74
2023-03-19T11:00:35.023Z,962.75
2023-03-19T11:01:34.961Z,962.78
2023-03-19T11:02:34.899Z,962.76
2023-03-19T11:03:34.874Z,962.77
2023-03-19T11:04:34.780Z,962.76
2023-03-19T11:05:35.115Z,962.77
2023-03-19T11:06:34.670Z,962.78
2023-03-19T11:07:34.593Z,962.76
2023-03-19T11:08:36.000Z,962.73
2023-03-19T11:09:34.460Z,962.78
2023-03-19T11:10:34.379Z,962.75
2023-03-19T11:11:34.316Z,962.73
2023-03-19T11:12:34.248Z,962.74
2023-03-19T11:13:34.180Z,962.72
2023-03-19T11:14:34.128Z,962.71
2023-03-19T11:15:34.274Z,962.66
2023-03-19T11:16:34.030Z,962.70
2023-03-19T11:17:33.924Z,962.71
2023-03-19T11:18:33.878Z,962.75
2023-03-19T11:19:33.799Z,962.71
2023-03-19T11:20:33.749Z,962.72
2023-03-19T11:21:33.674Z,962.71
2023-03-19T11:22:33.640Z,962.71
2023-03-19T11:23:33.537Z,962.66
2023-03-19T11:24:33.494Z,962.70
2023-03-19T11:25:33.743Z,962.67
2023-03-19T11:26:33.358Z,962.66
2023-03-19T11:27:33.286Z,962.66
2023-03-19T11:28:33.229Z,962.65
2023-03-19T11:29:33.164Z,962.66
2023-03-19T11:30:33.096Z,962.61
2023-03-19T11:31:33.051Z,962.62
2023-03-19T11:32:33.077Z,962.65
2023-03-19T11:33:32.905Z,962.62
2023-03-19T11:34:32.842Z,962.66
2023-03-19T11:35:33.329Z,962.65
2023-03-19T11:36:32.708Z,962.62
2023-03-19T11:37:32.659Z,962.64
2023-03-19T11:38:32.599Z,962.59
2023-03-19T11:39:32.533Z,962.58
2023-03-19T11:40:32.460Z,962.54
2023-03-19T11:41:32.390Z,962.49
2023-03-19T11:42:32.330Z,962.49
2023-03-19T11:43:32.262Z,962.51
2023-03-19T11:44:32.216Z,962.49
2023-03-19T11:45:32.162Z,962.50
2023-03-19T11:46:32.172Z,962.46
2023-03-19T11:47:32.028Z,962.49
2023-03-19T11:48:31.950Z,962.44
2023-03-19T11:49:31.883Z,962.46
2023-03-19T11:50:31.829Z,962.48
2023-03-19T11:51:31.758Z,962.42
2023-03-19T11:52:31.692Z,962.41
2023-03-19T11:53:31.632Z,962.39
2023-03-19T11:54:31.568Z,962.35
2023-03-19T11:55:31.558Z,962.38
2023-03-19T11:56:31.441Z,962.35
2023-03-19T11:57:31.382Z,962.32
2023-03-19T11:58:31.317Z,962.31
2023-03-19T11:59:31.248Z,962.35
2023-03-19T12:00:31.202Z,962.36
2023-03-19T12:01:31.120Z,962.35
2023-03-19T12:02:31.096Z,962.36
2023-03-19T12:03:31.042Z,962.33
2023-03-19T12:04:30.936Z,962.36
2023-03-19T12:05:30.871Z,962.31
2023-03-19T12:06:30.808Z,962.31
2023-03-19T12:07:30.740Z,962.36
2023-03-19T12:08:30.683Z,962.30
2023-03-19T12:09:30.618Z,962.31
2023-03-19T12:10:30.563Z,962.29
2023-03-19T12:11:30.489Z,962.29
2023-03-19T12:12:30.437Z,962.31
2023-03-19T12:13:30.369Z,962.27
2023-03-19T12:14:30.314Z,962.24
2023-03-19T12:15:30.235Z,962.25
2023-03-19T12:16:30.253Z,962.23
2023-03-19T12:17:30.412Z,962.25
2023-03-19T12:18:30.053Z,962.23
2023-03-19T12:19:29.983Z,962.25
2023-03-19T12:20:29.924Z,962.27
2023-03-19T12:21:29.859Z,962.22
2023-03-19T12:22:29.794Z,962.23
2023-03-19T12:23:29.725Z,962.24
2023-03-19T12:24:29.678Z,962.25
2023-03-19T12:25:29.607Z,962.22
2023-03-19T12:26:29.550Z,962.19
2023-03-19T12:27:29.481Z,962.19
2023-03-19T12:28:29.423Z,962.20
2023-03-19T12:29:29.353Z,962.23
2023-03-19T12:30:29.286Z,962.19
2023-03-19T12:31:29.314Z,962.19
2023-03-19T12:32:29.162Z,962.19
2023-03-19T12:33:29.099Z,962.15
2023-03-19T12:34:29.035Z,962.16
2023-03-19T12:35:28.969Z,962.13
2023-03-19T12:36:28.906Z,962.13
2023-03-19T12:37:28.844Z,962.07
2023-03-19T12:38:28.796Z,962.07